createdAt,value
2018-12-22T00:00:28.846Z,70.20
2018-12-22T00:01:28.858Z,143.70
2018-12-22T00:02:28.885Z,83.50
2018-12-22T00:03:28.897Z,75.20
2018-12-22T00:04:28.836Z,71.10
2018-12-22T00:05:28.832Z,63.10
2018-12-22T00:06:28.881Z,37.80
2018-12-22T00:07:28.837Z,50.30
2018-12-22T00:08:28.816Z,87.50
2018-12-22T00:09:28.817Z,156.40
2018-12-22T00:10:28.826Z,254.40
2018-12-22T00:11:28.813Z,205.60
2018-12-22T00:12:28.830Z,120.40
2018-12-22T00:13:28.807Z,354.60
2018-12-22T00:14:28.784Z,855.30
2018-12-22T00:15:28.817Z,465.40
2018-12-22T00:16:28.786Z,1012.20
2018-12-22T00:17:28.812Z,1508.50
2018-12-22T00:18:28.793Z,1948.90
2018-12-22T00:19:28.787Z,1455.60
2018-12-22T00:20:28.828Z,1999.90
2018-12-22T00:21:28.771Z,346.20
2018-12-22T00:22:28.810Z,405.60
2018-12-22T00:23:28.760Z,596.00
2018-12-22T00:24:28.753Z,1294.50
2018-12-22T00:25:28.738Z,1226.80
2018-12-22T00:26:28.775Z,1362.20
2018-12-22T00:27:28.747Z,1384.00
2018-12-22T00:28:28.725Z,1999.90
2018-12-22T00:29:28.714Z,1999.90
2018-12-22T00:30:28.743Z,1999.90
2018-12-22T00:31:28.769Z,1936.80
2018-12-22T00:32:28.984Z,1354.70
2018-12-22T00:33:28.695Z,1278.30
2018-12-22T00:34:28.706Z,1097.20
2018-12-22T00:35:28.692Z,1646.20
2018-12-22T00:36:28.662Z,1999.90
2018-12-22T00:37:28.655Z,1999.90
2018-12-22T00:38:28.688Z,1999.90
2018-12-22T00:39:28.644Z,1823.70
2018-12-22T00:40:28.660Z,1780.30
2018-12-22T00:41:28.656Z,1820.70
2018-12-22T00:42:28.685Z,1587.80
2018-12-22T00:43:28.657Z,1574.10
2018-12-22T00:44:28.628Z,995.60
2018-12-22T00:45:28.623Z,1363.30
2018-12-22T00:46:28.634Z,1116.40
2018-12-22T00:47:28.605Z,1190.80
2018-12-22T00:48:28.668Z,1203.30
2018-12-22T00:49:28.616Z,695.20
2018-12-22T00:50:28.593Z,1270.10
2018-12-22T00:51:28.574Z,1072.90
2018-12-22T00:52:28.585Z,1087.80
2018-12-22T00:53:28.563Z,1388.10
2018-12-22T00:54:28.572Z,1241.80
2018-12-22T00:55:28.543Z,1011.20
2018-12-22T00:56:28.552Z,1875.70
2018-12-22T00:57:28.575Z,1651.40
2018-12-22T00:58:30.841Z,1965.40
2018-12-22T00:59:28.739Z,1727.20
2018-12-22T01:00:28.516Z,1276.70
2018-12-22T01:01:28.509Z,1442.90
2018-12-22T01:02:28.515Z,1624.00
2018-12-22T01:03:28.514Z,1583.50
2018-12-22T01:04:28.489Z,1776.80
2018-12-22T01:05:28.497Z,1453.80
2018-12-22T01:06:28.488Z,1471.30
2018-12-22T01:07:28.461Z,1563.00
2018-12-22T01:08:28.514Z,1834.60
2018-12-22T01:09:28.447Z,1774.80
2018-12-22T01:10:28.455Z,1885.80
2018-12-22T01:11:28.449Z,1999.90
2018-12-22T01:12:28.444Z,1999.90
2018-12-22T01:13:28.447Z,1155.30
2018-12-22T01:14:28.428Z,1226.90
2018-12-22T01:15:28.439Z,1283.40
2018-12-22T01:16:28.433Z,1125.20
2018-12-22T01:17:28.423Z,1223.30
2018-12-22T01:18:28.422Z,1632.70
2018-12-22T01:19:28.424Z,1396.50
2018-12-22T01:20:28.403Z,1192.20
2018-12-22T01:21:28.395Z,1027.00
2018-12-22T01:22:28.360Z,1167.20
2018-12-22T01:23:28.400Z,1547.50
2018-12-22T01:24:28.397Z,1878.30
2018-12-22T01:25:28.372Z,1716.50
2018-12-22T01:26:28.369Z,1515.30
2018-12-22T01:27:28.375Z,1999.90
2018-12-22T01:28:28.327Z,1999.90
2018-12-22T01:29:28.390Z,1502.40
2018-12-22T01:30:28.319Z,1507.30
2018-12-22T01:31:28.338Z,1983.10
2018-12-22T01:32:28.333Z,1397.30
2018-12-22T01:33:28.330Z,1402.30
2018-12-22T01:34:28.295Z,1140.00
2018-12-22T01:35:28.315Z,874.90
2018-12-22T01:36:28.291Z,1021.20
2018-12-22T01:37:28.273Z,1213.10
2018-12-22T01:38:28.288Z,1037.00
2018-12-22T01:39:28.289Z,1600.70
2018-12-22T01:40:28.290Z,1109.20
2018-12-22T01:41:28.279Z,1615.10
2018-12-22T01:42:28.253Z,1454.00
2018-12-22T01:43:28.304Z,924.40
2018-12-22T01:44:28.272Z,648.90
2018-12-22T01:45:28.244Z,624.70
2018-12-22T01:46:28.251Z,842.70
2018-12-22T01:47:28.243Z,678.40
2018-12-22T01:48:28.225Z,1443.60
2018-12-22T01:49:28.218Z,1470.60
2018-12-22T01:50:28.222Z,1999.30
2018-12-22T01:51:28.201Z,1508.20
2018-12-22T01:52:28.205Z,1761.70
2018-12-22T01:53:28.195Z,1999.90
2018-12-22T01:54:28.204Z,1999.90
2018-12-22T01:55:28.193Z,1999.90
2018-12-22T01:56:28.187Z,1793.70
2018-12-22T01:57:28.211Z,1999.90
2018-12-22T01:58:28.186Z,1999.90
2018-12-22T01:59:28.143Z,1999.90
2018-12-22T02:00:28.159Z,1999.90
2018-12-22T02:01:28.154Z,1993.20
2018-12-22T02:02:28.177Z,1999.90
2018-12-22T02:03:28.137Z,1947.90
2018-12-22T02:04:28.133Z,1999.90
2018-12-22T02:05:28.133Z,1999.90
2018-12-22T02:06:28.123Z,1999.90
2018-12-22T02:07:28.104Z,1999.90
2018-12-22T02:08:28.100Z,1999.90
2018-12-22T02:09:28.098Z,1999.90
2018-12-22T02:10:28.080Z,1999.90
2018-12-22T02:11:28.096Z,1999.90
2018-12-22T02:12:28.090Z,1603.30
2018-12-22T02:13:28.061Z,1996.30
2018-12-22T02:14:28.062Z,1396.30
2018-12-22T02:15:28.052Z,1261.80
2018-12-22T02:16:28.055Z,1461.30
2018-12-22T02:17:28.045Z,1551.00
2018-12-22T02:18:28.063Z,1160.70
2018-12-22T02:19:28.030Z,665.90
2018-12-22T02:20:28.025Z,1129.80
2018-12-22T02:21:28.026Z,1181.10
2018-12-22T02:22:28.007Z,1286.00
2018-12-22T02:23:28.010Z,1156.30
2018-12-22T02:24:28.125Z,922.90
2018-12-22T02:25:28.011Z,1179.40
2018-12-22T02:26:27.974Z,1380.90
2018-12-22T02:27:28.086Z,1263.80
2018-12-22T02:28:27.985Z,1730.40
2018-12-22T02:29:28.014Z,1337.50
2018-12-22T02:30:27.961Z,1271.70
2018-12-22T02:31:27.986Z,1038.50
2018-12-22T02:32:27.966Z,1473.90
2018-12-22T02:33:27.942Z,1971.60
2018-12-22T02:34:27.955Z,1496.70
2018-12-22T02:35:27.929Z,1476.70
2018-12-22T02:36:27.946Z,1451.60
2018-12-22T02:37:27.905Z,1393.20
2018-12-22T02:38:27.934Z,1225.20
2018-12-22T02:39:27.926Z,1346.00
2018-12-22T02:40:27.906Z,1631.10
2018-12-22T02:41:27.916Z,1668.10
2018-12-22T02:42:27.887Z,1429.60
2018-12-22T02:43:27.929Z,1662.60
2018-12-22T02:44:27.897Z,1973.60
2018-12-22T02:45:27.890Z,1574.00
2018-12-22T02:46:27.887Z,954.10
2018-12-22T02:47:27.877Z,719.10
2018-12-22T02:48:27.846Z,390.90
2018-12-22T02:49:27.850Z,488.20
2018-12-22T02:50:27.848Z,415.10
2018-12-22T02:51:27.830Z,500.70
2018-12-22T02:52:27.841Z,769.80
2018-12-22T02:53:27.823Z,744.30
2018-12-22T02:54:27.824Z,897.40
2018-12-22T02:55:27.811Z,741.70
2018-12-22T02:56:27.818Z,1010.90
2018-12-22T02:57:27.813Z,1453.90
2018-12-22T02:58:27.794Z,1617.00
2018-12-22T02:59:27.801Z,1380.90
2018-12-22T03:00:27.800Z,1373.20
2018-12-22T03:01:27.811Z,1788.70
2018-12-22T03:02:27.822Z,1999.90
2018-12-22T03:03:27.777Z,1920.90
2018-12-22T03:04:27.771Z,1928.90
2018-12-22T03:05:27.747Z,1576.60
2018-12-22T03:06:27.761Z,1831.20
2018-12-22T03:07:27.804Z,1999.90
2018-12-22T03:08:27.786Z,1933.20
2018-12-22T03:09:27.730Z,1999.90
2018-12-22T03:10:27.779Z,1921.50
2018-12-22T03:11:27.734Z,1906.10
2018-12-22T03:12:27.718Z,1950.90
2018-12-22T03:13:27.726Z,1827.70
2018-12-22T03:14:27.725Z,1999.90
2018-12-22T03:15:27.691Z,1819.40
2018-12-22T03:16:27.712Z,1603.60
2018-12-22T03:17:27.740Z,1456.70
2018-12-22T03:18:27.707Z,1944.90
2018-12-22T03:19:27.679Z,1954.10
2018-12-22T03:20:27.686Z,1761.80
2018-12-22T03:21:27.673Z,1611.70
2018-12-22T03:22:27.683Z,1994.50
2018-12-22T03:23:27.652Z,1730.60
2018-12-22T03:24:27.675Z,1999.90
2018-12-22T03:25:27.656Z,1749.40
2018-12-22T03:26:27.698Z,1999.90
2018-12-22T03:27:27.660Z,1633.80
2018-12-22T03:28:27.613Z,1999.90
2018-12-22T03:29:27.624Z,1638.00
2018-12-22T03:30:27.634Z,1677.70
2018-12-22T03:31:27.615Z,1607.00
2018-12-22T03:32:27.614Z,1865.10
2018-12-22T03:33:27.601Z,1728.90
2018-12-22T03:34:27.594Z,1871.60
2018-12-22T03:35:27.636Z,1683.50
2018-12-22T03:36:27.560Z,1865.90
2018-12-22T03:37:27.614Z,1999.90
2018-12-22T03:38:27.564Z,1958.70
2018-12-22T03:39:27.558Z,1999.90
2018-12-22T03:40:27.560Z,1911.50
2018-12-22T03:41:27.558Z,1854.70
2018-12-22T03:42:27.557Z,1994.50
2018-12-22T03:43:27.555Z,1999.90
2018-12-22T03:44:27.517Z,1999.90
2018-12-22T03:45:27.515Z,1999.90
2018-12-22T03:46:27.504Z,1999.90
2018-12-22T03:47:27.503Z,1999.90
2018-12-22T03:48:27.495Z,1998.00
2018-12-22T03:49:27.505Z,1999.90
2018-12-22T03:50:27.484Z,1999.90
2018-12-22T03:51:27.497Z,1999.90
2018-12-22T03:52:27.495Z,1554.60
2018-12-22T03:53:27.464Z,1756.30
2018-12-22T03:54:27.512Z,1538.40
2018-12-22T03:55:27.497Z,1707.60
2018-12-22T03:56:27.504Z,1455.60
2018-12-22T03:57:27.465Z,1598.40
2018-12-22T03:58:27.461Z,1523.00
2018-12-22T03:59:27.489Z,1749.50
2018-12-22T04:00:27.431Z,1999.90
2018-12-22T04:01:27.438Z,1999.90
2018-12-22T04:02:27.468Z,1999.90
2018-12-22T04:03:27.402Z,1999.90
2018-12-22T04:04:27.444Z,1849.50
2018-12-22T04:05:27.400Z,1999.90
2018-12-22T04:06:27.451Z,1999.90
2018-12-22T04:07:27.410Z,1974.20
2018-12-22T04:08:27.376Z,1611.70
2018-12-22T04:09:27.375Z,1461.80
2018-12-22T04:10:27.387Z,1537.90
2018-12-22T04:11:27.382Z,1875.30
2018-12-22T04:12:27.380Z,1673.00
2018-12-22T04:13:27.372Z,1999.90
2018-12-22T04:14:27.362Z,1999.90
2018-12-22T04:15:27.360Z,1999.90
2018-12-22T04:16:27.347Z,1999.90
2018-12-22T04:17:27.332Z,1826.60
2018-12-22T04:18:27.310Z,965.80
2018-12-22T04:19:27.322Z,1509.60
2018-12-22T04:20:27.334Z,1709.70
2018-12-22T04:21:27.310Z,1799.90
2018-12-22T04:22:27.294Z,1689.00
2018-12-22T04:23:27.297Z,1359.10
2018-12-22T04:24:27.270Z,1359.00
2018-12-22T04:25:27.278Z,1546.40
2018-12-22T04:26:27.260Z,1480.40
2018-12-22T04:27:27.274Z,1496.80
2018-12-22T04:28:27.266Z,1645.40
2018-12-22T04:29:33.761Z,1968.00
2018-12-22T04:30:27.226Z,1679.60
2018-12-22T04:31:27.229Z,1851.20
2018-12-22T04:32:27.227Z,1143.10
2018-12-22T04:33:27.233Z,903.50
2018-12-22T04:34:27.218Z,1519.50
2018-12-22T04:35:27.221Z,1418.90
2018-12-22T04:36:27.224Z,1615.00
2018-12-22T04:37:27.195Z,1325.60
2018-12-22T04:38:27.190Z,1403.20
2018-12-22T04:39:27.179Z,1902.40
2018-12-22T04:40:27.197Z,1999.90
2018-12-22T04:41:27.194Z,1847.50
2018-12-22T04:42:27.184Z,1802.50
2018-12-22T04:43:27.179Z,1650.20
2018-12-22T04:44:27.183Z,1347.80
2018-12-22T04:45:27.150Z,1330.90
2018-12-22T04:46:27.177Z,1406.00
2018-12-22T04:47:27.159Z,1561.50
2018-12-22T04:48:27.133Z,1224.30
2018-12-22T04:49:27.125Z,823.30
2018-12-22T04:50:27.139Z,869.20
2018-12-22T04:51:27.118Z,715.70
2018-12-22T04:52:27.089Z,876.50
2018-12-22T04:53:27.108Z,1047.60
2018-12-22T04:54:27.112Z,939.70
2018-12-22T04:55:27.097Z,935.60
2018-12-22T04:56:27.091Z,991.20
2018-12-22T04:57:27.073Z,1319.80
2018-12-22T04:58:27.079Z,1185.90
2018-12-22T04:59:27.090Z,1381.50
2018-12-22T05:00:27.051Z,1690.70
2018-12-22T05:01:27.059Z,1712.60
2018-12-22T05:02:27.036Z,1604.60
2018-12-22T05:03:27.056Z,1843.60
2018-12-22T05:04:27.045Z,1498.20
2018-12-22T05:05:27.032Z,1618.10
2018-12-22T05:06:27.022Z,1547.10
2018-12-22T05:07:27.017Z,1590.60
2018-12-22T05:08:27.003Z,1304.00
2018-12-22T05:09:27.004Z,1098.60
2018-12-22T05:10:27.012Z,1364.10
2018-12-22T05:11:26.980Z,1178.70
2018-12-22T05:12:26.985Z,1566.40
2018-12-22T05:13:27.237Z,1633.00
2018-12-22T05:14:27.000Z,1491.50
2018-12-22T05:15:26.966Z,1608.70
2018-12-22T05:16:26.971Z,1581.40
2018-12-22T05:17:26.964Z,1698.30
2018-12-22T05:18:26.962Z,1822.50
2018-12-22T05:19:26.953Z,1663.10
2018-12-22T05:20:26.933Z,1822.10
2018-12-22T05:21:26.938Z,1999.90
2018-12-22T05:22:26.920Z,1807.00
2018-12-22T05:23:26.916Z,1749.50
2018-12-22T05:24:26.900Z,1828.20
2018-12-22T05:25:26.915Z,1903.70
2018-12-22T05:26:26.943Z,1415.50
2018-12-22T05:27:26.888Z,1426.60
2018-12-22T05:28:26.875Z,1418.00
2018-12-22T05:29:26.892Z,1499.10
2018-12-22T05:30:26.913Z,1551.80
2018-12-22T05:31:26.889Z,1339.80
2018-12-22T05:32:26.878Z,1299.80
2018-12-22T05:33:26.863Z,1547.20
2018-12-22T05:34:26.857Z,1039.40
2018-12-22T05:35:26.850Z,1058.50
2018-12-22T05:36:26.827Z,1151.50
2018-12-22T05:37:26.857Z,1226.00
2018-12-22T05:38:26.817Z,928.10
2018-12-22T05:39:26.823Z,851.30
2018-12-22T05:40:26.830Z,1068.30
2018-12-22T05:41:26.813Z,857.80
2018-12-22T05:42:26.861Z,862.80
2018-12-22T05:43:26.823Z,985.70
2018-12-22T05:44:27.029Z,866.90
2018-12-22T05:45:26.804Z,1272.00
2018-12-22T05:46:26.834Z,1195.20
2018-12-22T05:47:26.792Z,1148.50
2018-12-22T05:48:26.764Z,1221.80
2018-12-22T05:49:26.818Z,1173.20
2018-12-22T05:50:26.764Z,1300.90
2018-12-22T05:51:26.745Z,1210.40
2018-12-22T05:52:26.726Z,1235.40
2018-12-22T05:53:26.724Z,1350.30
2018-12-22T05:54:26.725Z,1376.90
2018-12-22T05:55:26.703Z,1096.20
2018-12-22T05:56:26.711Z,1099.10
2018-12-22T05:57:26.689Z,1141.80
2018-12-22T05:58:26.703Z,994.10
2018-12-22T05:59:26.717Z,1024.80
2018-12-22T06:00:26.720Z,1180.30
2018-12-22T06:01:26.736Z,815.20
2018-12-22T06:02:26.680Z,505.00
2018-12-22T06:03:26.663Z,485.20
2018-12-22T06:04:26.673Z,550.90
2018-12-22T06:05:26.666Z,629.30
2018-12-22T06:06:26.717Z,599.80
2018-12-22T06:07:26.659Z,624.90
2018-12-22T06:08:26.661Z,535.70
2018-12-22T06:09:26.686Z,516.50
2018-12-22T06:10:26.647Z,599.20
2018-12-22T06:11:26.937Z,605.10
2018-12-22T06:12:26.628Z,541.70
2018-12-22T06:13:26.671Z,717.60
2018-12-22T06:14:26.636Z,648.00
2018-12-22T06:15:26.663Z,501.30
2018-12-22T06:16:26.607Z,309.60
2018-12-22T06:17:27.545Z,544.20
2018-12-22T06:18:26.584Z,515.50
2018-12-22T06:19:26.574Z,445.30
2018-12-22T06:20:26.578Z,685.60
2018-12-22T06:21:26.562Z,572.30
2018-12-22T06:22:26.581Z,673.80
2018-12-22T06:23:26.775Z,598.10
2018-12-22T06:24:26.568Z,764.00
2018-12-22T06:25:26.553Z,646.40
2018-12-22T06:26:26.515Z,935.50
2018-12-22T06:27:26.559Z,836.40
2018-12-22T06:28:26.578Z,629.60
2018-12-22T06:29:26.528Z,1016.60
2018-12-22T06:30:26.524Z,709.70
2018-12-22T06:31:26.512Z,673.80
2018-12-22T06:32:26.490Z,768.20
2018-12-22T06:33:26.511Z,791.90
2018-12-22T06:34:26.489Z,575.70
2018-12-22T06:35:26.471Z,805.60
2018-12-22T06:36:26.489Z,594.10
2018-12-22T06:37:26.473Z,784.80
2018-12-22T06:38:26.444Z,890.40
2018-12-22T06:39:26.481Z,792.40
2018-12-22T06:40:26.465Z,1006.20
2018-12-22T06:41:26.438Z,1142.60
2018-12-22T06:42:26.482Z,1002.70
2018-12-22T06:43:26.440Z,746.00
2018-12-22T06:44:26.476Z,949.00
2018-12-22T06:45:26.438Z,690.40
2018-12-22T06:46:26.484Z,842.40
2018-12-22T06:47:26.420Z,704.60
2018-12-22T06:48:26.424Z,710.50
2018-12-22T06:49:26.408Z,755.40
2018-12-22T06:50:26.411Z,667.50
2018-12-22T06:51:26.398Z,538.90
2018-12-22T06:52:26.422Z,402.80
2018-12-22T06:53:26.361Z,660.60
2018-12-22T06:54:26.659Z,704.30
2018-12-22T06:55:26.358Z,580.60
2018-12-22T06:56:26.368Z,854.40
2018-12-22T06:57:26.348Z,863.30
2018-12-22T06:58:26.341Z,750.20
2018-12-22T06:59:26.394Z,812.90
2018-12-22T07:00:26.436Z,824.20
2018-12-22T07:01:26.346Z,551.00
2018-12-22T07:02:26.333Z,471.50
2018-12-22T07:03:26.308Z,493.10
2018-12-22T07:04:26.300Z,464.50
2018-12-22T07:05:26.370Z,600.90
2018-12-22T07:06:26.277Z,538.10
2018-12-22T07:07:26.296Z,565.70
2018-12-22T07:08:26.297Z,517.20
2018-12-22T07:09:26.296Z,724.10
2018-12-22T07:10:26.311Z,514.30
2018-12-22T07:11:26.262Z,576.30
2018-12-22T07:12:26.265Z,562.30
2018-12-22T07:13:26.248Z,566.90
2018-12-22T07:14:26.292Z,337.70
2018-12-22T07:15:26.234Z,470.20
2018-12-22T07:16:26.231Z,410.20
2018-12-22T07:17:26.238Z,502.00
2018-12-22T07:18:26.242Z,689.60
2018-12-22T07:19:26.229Z,640.30
2018-12-22T07:20:26.230Z,383.90
2018-12-22T07:21:26.204Z,549.70
2018-12-22T07:22:26.206Z,430.00
2018-12-22T07:23:26.199Z,437.30
2018-12-22T07:24:26.191Z,688.40
2018-12-22T07:25:26.185Z,592.30
2018-12-22T07:26:26.434Z,688.70
2018-12-22T07:27:26.223Z,1025.60
2018-12-22T07:28:26.176Z,1134.60
2018-12-22T07:29:26.202Z,1034.80
2018-12-22T07:30:26.624Z,944.80
2018-12-22T07:31:26.148Z,576.90
2018-12-22T07:32:26.158Z,611.90
2018-12-22T07:33:26.140Z,588.40
2018-12-22T07:34:26.141Z,514.90
2018-12-22T07:35:26.105Z,591.80
2018-12-22T07:36:26.131Z,547.00
2018-12-22T07:37:26.434Z,453.70
2018-12-22T07:38:26.132Z,596.10
2018-12-22T07:39:26.105Z,656.40
2018-12-22T07:40:26.093Z,1301.50
2018-12-22T07:41:26.099Z,1158.40
2018-12-22T07:42:26.097Z,1185.20
2018-12-22T07:43:26.124Z,1315.90
2018-12-22T07:44:26.067Z,1259.50
2018-12-22T07:45:26.091Z,1388.30
2018-12-22T07:46:26.049Z,1236.40
2018-12-22T07:47:26.045Z,1296.20
2018-12-22T07:48:26.303Z,1272.80
2018-12-22T07:49:26.065Z,752.70
2018-12-22T07:50:26.060Z,792.10
2018-12-22T07:51:26.038Z,736.50
2018-12-22T07:52:26.028Z,659.00
2018-12-22T07:53:26.034Z,466.90
2018-12-22T07:54:26.013Z,374.50
2018-12-22T07:55:26.057Z,681.60
2018-12-22T07:56:26.009Z,772.30
2018-12-22T07:57:26.004Z,774.40
2018-12-22T07:58:25.979Z,394.20
2018-12-22T07:59:25.978Z,595.90
2018-12-22T08:00:34.596Z,432.90
2018-12-22T08:01:25.961Z,496.30
2018-12-22T08:02:25.969Z,551.00
2018-12-22T08:03:26.008Z,490.50
2018-12-22T08:04:25.936Z,518.70
2018-12-22T08:05:25.949Z,750.90
2018-12-22T08:06:25.987Z,614.90
2018-12-22T08:07:25.950Z,517.00
2018-12-22T08:08:25.946Z,550.50
2018-12-22T08:09:25.920Z,716.20
2018-12-22T08:10:25.922Z,531.20
2018-12-22T08:11:25.919Z,742.20
2018-12-22T08:12:25.914Z,787.70
2018-12-22T08:13:25.903Z,596.60
2018-12-22T08:14:25.900Z,555.00
2018-12-22T08:15:25.894Z,436.70
2018-12-22T08:16:25.884Z,349.80
2018-12-22T08:17:25.867Z,552.80
2018-12-22T08:18:25.863Z,707.40
2018-12-22T08:19:25.841Z,525.00
2018-12-22T08:20:25.899Z,612.00
2018-12-22T08:21:25.852Z,724.80
2018-12-22T08:22:25.834Z,765.50
2018-12-22T08:23:25.829Z,577.10
2018-12-22T08:24:25.832Z,637.00
2018-12-22T08:25:25.812Z,599.90
2018-12-22T08:26:25.828Z,632.70
2018-12-22T08:27:25.814Z,595.90
2018-12-22T08:28:25.800Z,594.60
2018-12-22T08:29:25.796Z,712.00
2018-12-22T08:30:25.783Z,723.40
2018-12-22T08:31:25.778Z,664.30
2018-12-22T08:32:25.777Z,576.50
2018-12-22T08:33:25.773Z,613.00
2018-12-22T08:34:25.759Z,597.20
2018-12-22T08:35:25.753Z,717.40
2018-12-22T08:36:25.755Z,755.40
2018-12-22T08:37:25.748Z,812.00
2018-12-22T08:38:25.706Z,508.80
2018-12-22T08:39:25.734Z,700.00
2018-12-22T08:40:25.714Z,468.90
2018-12-22T08:41:25.709Z,662.20
2018-12-22T08:42:25.685Z,540.70
2018-12-22T08:43:25.725Z,523.20
2018-12-22T08:44:25.712Z,637.00
2018-12-22T08:45:25.702Z,439.90
2018-12-22T08:46:25.711Z,573.60
2018-12-22T08:47:25.733Z,481.90
2018-12-22T08:48:25.681Z,552.40
2018-12-22T08:49:25.678Z,514.60
2018-12-22T08:50:25.645Z,580.30
2018-12-22T08:51:25.646Z,584.40
2018-12-22T08:52:25.640Z,531.30
2018-12-22T08:53:25.637Z,651.50
2018-12-22T08:54:25.633Z,533.20
2018-12-22T08:55:25.641Z,431.90
2018-12-22T08:56:25.610Z,446.50
2018-12-22T08:57:25.629Z,428.70
2018-12-22T08:58:25.596Z,611.00
2018-12-22T08:59:25.614Z,534.30
2018-12-22T09:00:25.608Z,361.40
2018-12-22T09:01:25.589Z,362.80
2018-12-22T09:02:25.583Z,506.30
2018-12-22T09:03:25.578Z,423.80
2018-12-22T09:04:25.601Z,502.90
2018-12-22T09:05:25.568Z,616.80
2018-12-22T09:06:25.533Z,670.70
2018-12-22T09:07:25.547Z,485.20
2018-12-22T09:08:25.544Z,696.40
2018-12-22T09:09:25.525Z,718.40
2018-12-22T09:10:25.574Z,656.50
2018-12-22T09:11:25.529Z,735.70
2018-12-22T09:12:25.503Z,748.50
2018-12-22T09:13:25.555Z,608.90
2018-12-22T09:14:25.544Z,723.40
2018-12-22T09:15:25.484Z,849.50
2018-12-22T09:16:25.488Z,907.30
2018-12-22T09:17:25.483Z,617.30
2018-12-22T09:18:25.483Z,651.50
2018-12-22T09:19:25.463Z,574.00
2018-12-22T09:20:25.447Z,580.90
2018-12-22T09:21:25.456Z,673.00
2018-12-22T09:22:25.462Z,663.10
2018-12-22T09:23:25.416Z,592.60
2018-12-22T09:24:25.482Z,554.90
2018-12-22T09:25:25.427Z,742.80
2018-12-22T09:26:25.429Z,412.10
2018-12-22T09:27:25.407Z,554.80
2018-12-22T09:28:25.399Z,449.80
2018-12-22T09:29:25.401Z,346.10
2018-12-22T09:30:25.411Z,383.80
2018-12-22T09:31:25.373Z,670.90
2018-12-22T09:32:25.372Z,505.20
2018-12-22T09:33:25.373Z,512.60
2018-12-22T09:34:25.375Z,477.70
2018-12-22T09:35:25.358Z,433.70
2018-12-22T09:36:25.372Z,376.20
2018-12-22T09:37:25.351Z,493.20
2018-12-22T09:38:25.348Z,330.40
2018-12-22T09:39:25.324Z,394.30
2018-12-22T09:40:25.337Z,450.50
2018-12-22T09:41:25.321Z,452.30
2018-12-22T09:42:25.311Z,483.70
2018-12-22T09:43:25.338Z,507.50
2018-12-22T09:44:25.317Z,442.40
2018-12-22T09:45:25.305Z,449.20
2018-12-22T09:46:25.308Z,314.20
2018-12-22T09:47:25.298Z,414.10
2018-12-22T09:48:25.268Z,301.00
2018-12-22T09:49:25.280Z,320.70
2018-12-22T09:50:25.293Z,210.90
2018-12-22T09:51:25.257Z,353.10
2018-12-22T09:52:25.274Z,261.90
2018-12-22T09:53:25.230Z,338.70
2018-12-22T09:54:25.239Z,390.20
2018-12-22T09:55:25.246Z,290.20
2018-12-22T09:56:25.228Z,301.90
2018-12-22T09:57:25.242Z,255.60
2018-12-22T09:58:25.239Z,265.30
2018-12-22T09:59:25.214Z,184.10
2018-12-22T10:00:25.244Z,231.00
2018-12-22T10:01:25.203Z,315.50
2018-12-22T10:02:25.196Z,319.40
2018-12-22T10:03:25.195Z,469.40
2018-12-22T10:04:25.194Z,438.40
2018-12-22T10:05:25.198Z,377.00
2018-12-22T10:06:25.173Z,301.20
2018-12-22T10:07:25.181Z,281.60
2018-12-22T10:08:25.209Z,351.40
2018-12-22T10:09:25.159Z,424.90
2018-12-22T10:10:25.158Z,426.00
2018-12-22T10:11:25.157Z,463.50
2018-12-22T10:12:25.121Z,456.30
2018-12-22T10:13:25.126Z,390.00
2018-12-22T10:14:25.111Z,345.10
2018-12-22T10:15:25.126Z,256.50
2018-12-22T10:16:25.118Z,379.80
2018-12-22T10:17:25.095Z,310.10
2018-12-22T10:18:25.095Z,221.70
2018-12-22T10:19:25.090Z,190.50
2018-12-22T10:20:25.103Z,178.50
2018-12-22T10:21:25.096Z,163.60
2018-12-22T10:22:25.082Z,235.10
2018-12-22T10:23:25.091Z,249.20
2018-12-22T10:24:25.053Z,244.30
2018-12-22T10:25:25.098Z,191.80
2018-12-22T10:26:25.098Z,325.90
2018-12-22T10:27:25.043Z,320.50
2018-12-22T10:28:25.051Z,261.20
2018-12-22T10:29:25.021Z,281.00
2018-12-22T10:30:25.013Z,219.60
2018-12-22T10:31:25.015Z,238.10
2018-12-22T10:32:25.009Z,340.80
2018-12-22T10:33:24.991Z,293.90
2018-12-22T10:34:25.001Z,245.00
2018-12-22T10:35:25.049Z,239.40
2018-12-22T10:36:25.009Z,138.90
2018-12-22T10:37:25.051Z,287.20
2018-12-22T10:38:25.002Z,149.30
2018-12-22T10:39:24.963Z,220.40
2018-12-22T10:40:24.968Z,195.50
2018-12-22T10:41:24.962Z,198.80
2018-12-22T10:42:24.971Z,339.20
2018-12-22T10:43:24.973Z,261.00
2018-12-22T10:44:24.936Z,241.60
2018-12-22T10:45:24.936Z,197.40
2018-12-22T10:46:24.931Z,174.10
2018-12-22T10:47:24.937Z,328.70
2018-12-22T10:48:25.006Z,221.40
2018-12-22T10:49:24.945Z,147.70
2018-12-22T10:50:24.915Z,76.50
2018-12-22T10:51:24.918Z,112.90
2018-12-22T10:52:24.908Z,184.40
2018-12-22T10:53:24.922Z,173.30
2018-12-22T10:54:24.921Z,144.70
2018-12-22T10:55:24.888Z,154.10
2018-12-22T10:56:24.883Z,106.00
2018-12-22T10:57:24.894Z,101.20
2018-12-22T10:58:24.882Z,103.80
2018-12-22T10:59:24.879Z,132.70
2018-12-22T11:00:24.851Z,59.10
2018-12-22T11:01:26.645Z,120.80
2018-12-22T11:02:24.849Z,91.30
2018-12-22T11:03:24.836Z,140.50
2018-12-22T11:04:24.854Z,190.00
2018-12-22T11:05:24.860Z,121.00
2018-12-22T11:06:24.847Z,99.50
2018-12-22T11:07:24.836Z,48.30
2018-12-22T11:08:24.826Z,64.90
2018-12-22T11:09:24.837Z,138.40
2018-12-22T11:10:24.798Z,50.80
2018-12-22T11:11:24.815Z,46.90
2018-12-22T11:12:24.807Z,51.80
2018-12-22T11:13:24.806Z,65.40
2018-12-22T11:14:24.799Z,28.80
2018-12-22T11:15:24.814Z,44.40
2018-12-22T11:16:24.773Z,29.60
2018-12-22T11:17:24.817Z,37.00
2018-12-22T11:18:24.776Z,23.40
2018-12-22T11:19:24.766Z,13.60
2018-12-22T11:20:24.780Z,12.60
2018-12-22T11:21:24.760Z,17.20
2018-12-22T11:22:24.738Z,8.00
2018-12-22T11:23:24.775Z,9.10
2018-12-22T11:24:24.749Z,10.00
2018-12-22T11:25:24.763Z,8.90
2018-12-22T11:26:24.721Z,6.10
2018-12-22T11:27:24.736Z,8.10
2018-12-22T11:28:24.754Z,6.40
2018-12-22T11:29:24.750Z,8.30
2018-12-22T11:30:24.720Z,6.60
2018-12-22T11:31:24.719Z,7.50
2018-12-22T11:32:24.710Z,6.70
2018-12-22T11:33:24.718Z,5.60
2018-12-22T11:34:24.716Z,5.40
2018-12-22T11:35:24.715Z,5.00
2018-12-22T11:36:24.700Z,6.70
2018-12-22T11:37:24.690Z,4.50
2018-12-22T11:38:24.695Z,6.20
2018-12-22T11:39:24.716Z,4.90
2018-12-22T11:40:24.696Z,5.10
2018-12-22T11:41:24.697Z,5.10
2018-12-22T11:42:24.677Z,3.20
2018-12-22T11:43:24.682Z,3.20
2018-12-22T11:44:24.675Z,4.30
2018-12-22T11:45:24.663Z,3.40
2018-12-22T11:46:24.673Z,5.40
2018-12-22T11:47:24.723Z,3.90
2018-12-22T11:48:24.658Z,5.90
2018-12-22T11:49:24.690Z,6.40
2018-12-22T11:50:24.648Z,5.00
2018-12-22T11:51:24.671Z,4.80
2018-12-22T11:52:24.659Z,4.50
2018-12-22T11:53:24.671Z,4.00
2018-12-22T11:54:24.657Z,4.70
2018-12-22T11:55:24.655Z,5.40
2018-12-22T11:56:24.646Z,3.40
2018-12-22T11:57:24.657Z,5.50
2018-12-22T11:58:24.656Z,3.10
2018-12-22T11:59:24.636Z,4.70
2018-12-22T12:00:24.626Z,6.20
2018-12-22T12:01:24.652Z,5.40
2018-12-22T12:02:24.632Z,4.90
2018-12-22T12:03:24.624Z,5.40
2018-12-22T12:04:24.628Z,7.30
2018-12-22T12:05:24.648Z,5.40
2018-12-22T12:06:24.673Z,5.30
2018-12-22T12:07:24.632Z,6.40
2018-12-22T12:08:24.601Z,3.80
2018-12-22T12:09:24.619Z,4.10
2018-12-22T12:10:24.622Z,5.20
2018-12-22T12:11:24.660Z,4.80
2018-12-22T12:12:24.629Z,3.80
2018-12-22T12:13:24.645Z,7.00
2018-12-22T12:14:24.624Z,5.30
2018-12-22T12:15:24.615Z,3.50
2018-12-22T12:16:24.631Z,3.30
2018-12-22T12:17:24.629Z,4.50
2018-12-22T12:18:24.613Z,3.80
2018-12-22T12:19:24.602Z,3.50
2018-12-22T12:20:24.619Z,2.90
2018-12-22T12:21:24.621Z,5.10
2018-12-22T12:22:24.614Z,3.00
2018-12-22T12:23:24.623Z,2.40